createdAt,value
2019-05-19T00:02:00.038Z,94922.75
2019-05-19T00:04:30.708Z,94924.53
2019-05-19T00:07:01.341Z,94926.28
2019-05-19T00:09:31.903Z,94923.09
2019-05-19T00:12:04.183Z,94925.94
2019-05-19T00:14:34.931Z,94927.50
2019-05-19T00:17:10.667Z,94925.94
2019-05-19T00:19:42.095Z,94928.83
2019-05-19T00:22:12.937Z,94921.38
2019-05-19T00:24:43.360Z,94917.21
2019-05-19T00:27:14.478Z,94912.14
2019-05-19T00:29:45.693Z,94912.81
2019-05-19T00:32:16.146Z,94914.53
2019-05-19T00:34:46.599Z,94917.09
2019-05-19T00:37:16.999Z,94916.56
2019-05-19T00:39:49.148Z,94923.07
2019-05-19T00:42:19.784Z,94924.17
2019-05-19T00:44:53.814Z,94921.53
2019-05-19T00:47:24.336Z,94916.44
2019-05-19T00:49:54.762Z,94915.62
2019-05-19T00:52:25.312Z,94916.47
2019-05-19T00:54:55.825Z,94911.20
2019-05-19T00:57:45.302Z,94908.02
2019-05-19T01:00:15.833Z,94906.77
2019-05-19T01:02:46.237Z,94904.69
2019-05-19T01:05:16.669Z,94910.90
2019-05-19T01:07:47.303Z,94908.25
2019-05-19T01:10:18.215Z,94906.73
2019-05-19T01:12:48.644Z,94910.89
2019-05-19T01:15:19.067Z,94906.19
2019-05-19T01:17:49.633Z,94906.44
2019-05-19T01:20:22.315Z,94907.00
2019-05-19T01:22:52.733Z,94902.83
2019-05-19T01:25:23.687Z,94896.25
2019-05-19T01:27:54.119Z,94894.75
2019-05-19T01:30:24.523Z,94890.24
2019-05-19T01:32:54.945Z,94892.18
2019-05-19T01:35:26.377Z,94900.50
2019-05-19T01:38:02.982Z,94898.17
2019-05-19T01:40:33.380Z,94900.65
2019-05-19T01:43:54.333Z,94898.29
2019-05-19T01:46:24.871Z,94900.22
2019-05-19T01:48:55.853Z,94905.11
2019-05-19T01:51:26.300Z,94903.80
2019-05-19T01:53:57.212Z,94898.78
2019-05-19T01:56:29.212Z,94909.22
2019-05-19T01:58:59.603Z,94903.42
2019-05-19T02:01:30.035Z,94897.82
2019-05-19T02:04:01.083Z,94899.42
2019-05-19T02:06:33.360Z,94910.87
2019-05-19T02:09:05.140Z,94898.36
2019-05-19T02:11:35.624Z,94905.02
2019-05-19T02:14:06.581Z,94909.81
2019-05-19T02:16:37.079Z,94902.36
2019-05-19T02:19:19.929Z,94905.61
2019-05-19T02:21:50.387Z,94904.28
2019-05-19T02:24:20.834Z,94904.55
2019-05-19T02:26:51.283Z,94908.55
2019-05-19T02:29:22.251Z,94904.35
2019-05-19T02:31:52.697Z,94907.80
2019-05-19T02:34:23.146Z,94911.30
2019-05-19T02:36:53.574Z,94907.86
2019-05-19T02:39:36.937Z,94911.90
2019-05-19T02:42:07.333Z,94911.65
2019-05-19T02:44:40.497Z,94906.86
2019-05-19T02:47:11.177Z,94908.77
2019-05-19T02:52:30.988Z,94902.71
2019-05-19T02:55:01.524Z,94901.96
2019-05-19T02:57:32.824Z,94897.44
2019-05-19T03:00:03.485Z,94896.36
2019-05-19T03:02:34.114Z,94897.17
2019-05-19T03:05:07.011Z,94900.09
2019-05-19T03:07:37.920Z,94896.09
2019-05-19T03:10:08.444Z,94904.89
2019-05-19T03:12:39.006Z,94896.68
2019-05-19T03:15:09.448Z,94893.48
2019-05-19T03:17:40.096Z,94896.37
2019-05-19T03:20:11.054Z,94899.30
2019-05-19T03:22:41.573Z,94896.37
2019-05-19T03:25:12.641Z,94898.77
2019-05-19T03:27:43.108Z,94897.38
2019-05-19T03:30:31.289Z,94898.97
2019-05-19T03:33:02.993Z,94900.80
2019-05-19T03:35:33.723Z,94906.39
2019-05-19T03:38:04.246Z,94902.66
2019-05-19T03:40:34.655Z,94902.12
2019-05-19T03:43:05.125Z,94901.27
2019-05-19T03:45:35.786Z,94893.53
2019-05-19T03:48:06.547Z,94898.53
2019-05-19T03:50:36.963Z,94895.85
2019-05-19T03:53:07.717Z,94898.48
2019-05-19T03:55:38.251Z,94897.36
2019-05-19T03:58:08.649Z,94889.62
2019-05-19T04:00:40.414Z,94886.63
2019-05-19T04:03:10.861Z,94892.20
2019-05-19T04:05:41.345Z,94891.61
2019-05-19T04:08:12.086Z,94895.57
2019-05-19T04:10:42.607Z,94891.76
2019-05-19T04:13:13.067Z,94891.66
2019-05-19T04:15:43.859Z,94897.72
2019-05-19T04:18:17.663Z,94897.88
2019-05-19T04:20:47.749Z,94898.01
2019-05-19T04:23:18.181Z,94893.87
2019-05-19T04:25:48.668Z,94903.13
2019-05-19T04:28:19.134Z,94898.01
2019-05-19T04:30:49.585Z,94901.66
2019-05-19T04:33:20.030Z,94893.53
2019-05-19T04:35:50.464Z,94884.23
2019-05-19T04:38:21.116Z,94885.67
2019-05-19T04:41:01.901Z,94892.50
2019-05-19T04:43:32.361Z,94897.89
2019-05-19T04:46:04.164Z,94904.14
2019-05-19T04:48:34.556Z,94901.73
2019-05-19T04:51:04.958Z,94902.47
2019-05-19T04:53:37.518Z,94904.78
2019-05-19T04:56:19.874Z,94907.31
2019-05-19T04:58:50.070Z,94905.52
2019-05-19T05:01:20.486Z,94907.99
2019-05-19T05:03:50.955Z,94902.94
2019-05-19T05:06:21.566Z,94905.74
2019-05-19T05:08:52.029Z,94904.63
2019-05-19T05:11:22.741Z,94914.02
2019-05-19T05:13:53.171Z,94902.92
2019-05-19T05:16:23.627Z,94905.29
2019-05-19T05:18:54.057Z,94903.70
2019-05-19T05:21:24.687Z,94890.34
2019-05-19T05:24:00.138Z,94895.06
2019-05-19T05:26:30.624Z,94886.70
2019-05-19T05:29:01.058Z,94888.37
2019-05-19T05:31:31.475Z,94888.55
2019-05-19T05:34:02.177Z,94882.84
2019-05-19T05:36:33.075Z,94887.78
2019-05-19T05:39:04.982Z,94889.48
2019-05-19T05:41:35.457Z,94880.86
2019-05-19T05:44:06.080Z,94876.98
2019-05-19T05:46:36.748Z,94875.97
2019-05-19T05:49:07.262Z,94874.41
2019-05-19T05:51:40.291Z,94872.24
2019-05-19T05:54:11.095Z,94869.70
2019-05-19T05:56:42.103Z,94868.09
2019-05-19T05:59:15.841Z,94873.58
2019-05-19T06:01:46.306Z,94875.30
2019-05-19T06:04:17.559Z,94873.73
2019-05-19T06:06:48.123Z,94873.39
2019-05-19T06:09:19.094Z,94873.08
2019-05-19T06:11:50.337Z,94873.16
2019-05-19T06:14:21.110Z,94870.23
2019-05-19T06:16:52.086Z,94871.27
2019-05-19T06:19:35.203Z,94878.72
2019-05-19T06:22:08.352Z,94882.53
2019-05-19T06:24:45.064Z,94881.01
2019-05-19T06:27:14.321Z,94882.97
2019-05-19T06:29:44.800Z,94879.03
2019-05-19T06:32:38.634Z,94881.73
2019-05-19T06:35:09.090Z,94882.28
2019-05-19T06:37:39.581Z,94875.02
2019-05-19T06:40:12.881Z,94874.11
2019-05-19T06:42:43.369Z,94869.75
2019-05-19T06:45:17.213Z,94871.80
2019-05-19T06:47:49.675Z,94872.66
2019-05-19T06:50:20.230Z,94872.89
2019-05-19T06:52:50.796Z,94868.62
2019-05-19T06:55:21.260Z,94873.70
2019-05-19T06:57:53.187Z,94875.75
2019-05-19T07:00:23.696Z,94876.89
2019-05-19T07:03:00.230Z,94878.13
2019-05-19T07:05:31.707Z,94877.47
2019-05-19T07:08:08.109Z,94875.05
2019-05-19T07:10:38.841Z,94878.84
2019-05-19T07:13:09.504Z,94884.50
2019-05-19T07:15:39.984Z,94880.88
2019-05-19T07:18:10.463Z,94882.61
2019-05-19T07:20:41.066Z,94883.31
2019-05-19T07:23:11.962Z,94878.45
2019-05-19T07:25:42.937Z,94879.77
2019-05-19T07:28:17.595Z,94878.94
2019-05-19T07:30:48.120Z,94878.64
2019-05-19T07:33:18.915Z,94873.94
2019-05-19T07:35:50.764Z,94869.92
2019-05-19T07:38:21.229Z,94870.94
2019-05-19T07:40:55.217Z,94866.39
2019-05-19T07:43:28.407Z,94865.56
2019-05-19T07:46:02.094Z,94858.36
2019-05-19T07:48:34.224Z,94858.86
2019-05-19T07:51:08.192Z,94862.96
2019-05-19T07:53:42.878Z,94862.22
2019-05-19T07:56:14.738Z,94861.72
2019-05-19T07:58:45.267Z,94855.29
2019-05-19T08:01:20.047Z,94856.95
2019-05-19T08:03:50.579Z,94856.78
2019-05-19T08:06:28.671Z,94855.97
2019-05-19T08:09:02.127Z,94852.16
2019-05-19T08:11:33.650Z,94855.66
2019-05-19T08:14:09.751Z,94850.88
2019-05-19T08:16:40.237Z,94855.80
2019-05-19T08:19:10.690Z,94856.02
2019-05-19T08:21:41.155Z,94855.36
2019-05-19T08:24:11.642Z,94852.51
2019-05-19T08:26:42.369Z,94850.70
2019-05-19T08:29:14.485Z,94850.92
2019-05-19T08:31:50.230Z,94851.02
2019-05-19T08:34:21.090Z,94857.14
2019-05-19T08:36:57.290Z,94857.92
2019-05-19T08:39:28.888Z,94854.14
2019-05-19T08:41:59.361Z,94853.02
2019-05-19T08:44:29.762Z,94854.64
2019-05-19T08:47:05.130Z,94853.02
2019-05-19T08:49:39.457Z,94848.67
2019-05-19T08:52:13.672Z,94854.23
2019-05-19T08:54:49.609Z,94854.23
2019-05-19T08:57:20.346Z,94852.30
2019-05-19T08:59:51.164Z,94847.55
2019-05-19T09:02:24.101Z,94856.36
2019-05-19T09:04:54.913Z,94849.94
2019-05-19T09:07:25.391Z,94849.97
2019-05-19T09:09:56.042Z,94852.04
2019-05-19T09:12:26.836Z,94849.27
2019-05-19T09:15:06.007Z,94853.13
2019-05-19T09:17:39.311Z,94855.47
2019-05-19T09:20:10.060Z,94851.05
2019-05-19T09:22:42.236Z,94848.22
2019-05-19T09:25:12.666Z,94851.80
2019-05-19T09:27:43.419Z,94847.58
2019-05-19T09:30:15.185Z,94846.14
2019-05-19T09:32:45.745Z,94848.54
2019-05-19T09:35:16.232Z,94845.55
2019-05-19T09:37:47.118Z,94846.14
2019-05-19T09:40:19.106Z,94850.71
2019-05-19T09:42:55.117Z,94849.73
2019-05-19T09:45:25.186Z,94849.11
2019-05-19T09:47:57.906Z,94842.31
2019-05-19T09:50:30.627Z,94846.07
2019-05-19T09:53:05.778Z,94843.14
2019-05-19T09:55:38.859Z,94841.91
2019-05-19T09:58:09.346Z,94840.73
2019-05-19T10:00:45.670Z,94841.62
2019-05-19T10:03:19.787Z,94846.27
2019-05-19T10:05:57.939Z,94841.78
2019-05-19T10:08:55.880Z,94848.23
2019-05-19T10:12:00.502Z,94845.94
2019-05-19T10:14:30.963Z,94846.09
2019-05-19T10:17:01.653Z,94835.59
2019-05-19T10:19:34.795Z,94838.45
2019-05-19T10:22:05.399Z,94833.05
2019-05-19T10:24:57.820Z,94831.23
2019-05-19T10:27:21.858Z,94831.52
2019-05-19T10:29:54.095Z,94827.95
2019-05-19T10:32:26.318Z,94824.14
2019-05-19T10:34:57.179Z,94823.71
2019-05-19T10:37:28.283Z,94821.70
2019-05-19T10:39:59.495Z,94824.59
2019-05-19T10:42:30.242Z,94826.16
2019-05-19T10:45:00.725Z,94830.42
2019-05-19T10:47:31.115Z,94820.48
2019-05-19T10:50:01.622Z,94825.71
2019-05-19T10:52:34.352Z,94817.91
2019-05-19T10:55:05.084Z,94823.21
2019-05-19T10:57:37.166Z,94819.49
2019-05-19T11:00:08.739Z,94809.52
2019-05-19T11:02:42.702Z,94817.03
2019-05-19T11:05:13.413Z,94803.73
2019-05-19T11:07:53.615Z,94814.18
2019-05-19T11:10:24.165Z,94806.44
2019-05-19T11:12:54.729Z,94812.27
2019-05-19T11:15:28.671Z,94809.48
2019-05-19T11:18:07.885Z,94804.41
2019-05-19T11:20:41.765Z,94805.77
2019-05-19T11:23:24.015Z,94800.70
2019-05-19T11:25:55.067Z,94798.03
2019-05-19T11:28:25.631Z,94800.72
2019-05-19T11:30:59.794Z,94804.76
2019-05-19T11:33:29.239Z,94795.30
2019-05-19T11:36:06.174Z,94792.27
2019-05-19T11:38:41.392Z,94800.28
2019-05-19T11:41:15.096Z,94797.02
2019-05-19T11:44:14.735Z,94787.25
2019-05-19T11:46:49.300Z,94791.95
2019-05-19T11:49:24.861Z,94794.19
2019-05-19T11:52:04.963Z,94793.95
2019-05-19T11:54:41.182Z,94790.54
2019-05-19T11:57:32.251Z,94796.55
2019-05-19T12:00:06.524Z,94798.69
2019-05-19T12:03:03.609Z,94794.76
2019-05-19T12:05:37.756Z,94800.34
2019-05-19T12:08:21.227Z,94791.92
2019-05-19T12:10:53.195Z,94791.72
2019-05-19T12:13:25.997Z,94797.22
2019-05-19T12:15:58.265Z,94787.82
2019-05-19T12:18:32.396Z,94791.38
2019-05-19T12:21:04.871Z,94784.32
2019-05-19T12:23:35.584Z,94790.58
2019-05-19T12:26:22.212Z,94784.02
2019-05-19T12:28:42.592Z,94786.81
2019-05-19T12:31:17.110Z,94789.12
2019-05-19T12:33:52.471Z,94781.27
2019-05-19T12:36:25.080Z,94787.59
2019-05-19T12:38:55.526Z,94789.16
2019-05-19T12:41:40.847Z,94783.77
2019-05-19T12:44:15.611Z,94783.66
2019-05-19T12:46:49.556Z,94792.47
2019-05-19T12:49:31.970Z,94782.99
2019-05-19T12:52:07.180Z,94785.41
2019-05-19T12:54:39.309Z,94791.38
2019-05-19T12:57:12.244Z,94788.91
2019-05-19T12:59:42.986Z,94788.29
2019-05-19T13:02:13.387Z,94787.50
2019-05-19T13:04:44.093Z,94782.70
2019-05-19T13:07:15.178Z,94788.06
2019-05-19T13:09:45.648Z,94778.58
2019-05-19T13:12:19.140Z,94783.30
2019-05-19T13:14:54.313Z,94780.35
2019-05-19T13:17:24.707Z,94769.42
2019-05-19T13:19:55.234Z,94777.67
2019-05-19T13:22:34.284Z,94766.95
2019-05-19T13:25:10.101Z,94772.39
2019-05-19T13:27:41.391Z,94766.27
2019-05-19T13:30:12.028Z,94765.98
2019-05-19T13:32:42.999Z,94755.91
2019-05-19T13:35:13.485Z,94761.83
2019-05-19T13:37:43.935Z,94757.69
2019-05-19T13:40:14.361Z,94750.09
2019-05-19T13:42:46.302Z,94742.45
2019-05-19T13:45:17.115Z,94742.00
2019-05-19T13:47:47.899Z,94745.16
2019-05-19T13:50:25.586Z,94753.31
2019-05-19T13:52:59.203Z,94745.20
2019-05-19T13:55:30.112Z,94744.13
2019-05-19T13:58:03.446Z,94738.91
2019-05-19T14:00:32.935Z,94737.58
2019-05-19T14:03:03.402Z,94733.80
2019-05-19T14:05:33.813Z,94737.56
2019-05-19T14:08:07.014Z,94734.72
2019-05-19T14:10:41.682Z,94733.76
2019-05-19T14:13:12.113Z,94723.13
2019-05-19T14:15:53.561Z,94716.30
2019-05-19T14:18:27.652Z,94723.14
2019-05-19T14:20:58.097Z,94721.19
2019-05-19T14:23:29.651Z,94730.09
2019-05-19T14:26:00.498Z,94725.67
2019-05-19T14:28:32.092Z,94722.08
2019-05-19T14:31:02.773Z,94730.00
2019-05-19T14:33:34.242Z,94721.91
2019-05-19T14:36:06.251Z,94719.28
2019-05-19T14:38:39.658Z,94707.02
2019-05-19T14:41:10.494Z,94718.37
2019-05-19T14:43:44.107Z,94708.81
2019-05-19T14:46:14.671Z,94707.17
2019-05-19T14:48:46.754Z,94703.45
2019-05-19T14:51:22.039Z,94715.34
2019-05-19T14:53:57.411Z,94707.33
2019-05-19T14:56:28.071Z,94707.52
2019-05-19T14:59:01.507Z,94712.64
2019-05-19T15:01:36.596Z,94699.55
2019-05-19T15:04:19.288Z,94709.14
2019-05-19T15:06:53.005Z,94700.91
2019-05-19T15:09:33.660Z,94701.70
2019-05-19T15:12:10.565Z,94706.39
2019-05-19T15:14:41.188Z,94704.22
2019-05-19T15:17:20.093Z,94709.14
2019-05-19T15:19:51.164Z,94707.98
2019-05-19T15:22:27.133Z,94710.28
2019-05-19T15:24:59.075Z,94700.63
2019-05-19T15:27:32.971Z,94697.47
2019-05-19T15:30:13.277Z,94693.17
2019-05-19T15:32:42.621Z,94702.34
2019-05-19T15:35:16.502Z,94698.46
2019-05-19T15:37:52.641Z,94688.13
2019-05-19T15:40:23.308Z,94690.23
2019-05-19T15:42:54.331Z,94688.84
2019-05-19T15:45:25.516Z,94691.58
2019-05-19T15:48:02.706Z,94685.23
2019-05-19T15:50:33.835Z,94687.38
2019-05-19T15:53:04.656Z,94688.77
2019-05-19T15:55:35.305Z,94687.13
2019-05-19T15:58:16.447Z,94689.48
2019-05-19T16:01:00.286Z,94689.83
2019-05-19T16:03:31.094Z,94689.20
2019-05-19T16:06:02.101Z,94686.66
2019-05-19T16:08:34.491Z,94678.00
2019-05-19T16:11:10.276Z,94669.05
2019-05-19T16:13:40.759Z,94671.28
2019-05-19T16:16:14.525Z,94674.69
2019-05-19T16:19:04.090Z,94678.38
2019-05-19T16:21:34.542Z,94677.78
2019-05-19T16:24:08.079Z,94678.83
2019-05-19T16:26:55.624Z,94676.58
2019-05-19T16:29:33.852Z,94682.97
2019-05-19T16:32:08.451Z,94685.24
2019-05-19T16:34:41.223Z,94685.02
2019-05-19T16:37:37.520Z,94685.59
2019-05-19T16:40:12.406Z,94685.16
2019-05-19T16:43:15.785Z,94685.00
2019-05-19T16:45:48.898Z,94683.87
2019-05-19T16:48:19.378Z,94698.47
2019-05-19T16:50:49.836Z,94708.80
2019-05-19T16:53:25.164Z,94715.62
2019-05-19T16:55:55.262Z,94718.37
2019-05-19T16:58:44.512Z,94715.84
2019-05-19T17:01:04.420Z,94714.53
2019-05-19T17:03:36.781Z,94706.64
2019-05-19T17:06:08.705Z,94705.91
2019-05-19T17:08:39.131Z,94707.20
2019-05-19T17:11:17.942Z,94709.72
2019-05-19T17:13:42.386Z,94713.08
2019-05-19T17:16:17.092Z,94707.02
2019-05-19T17:18:49.083Z,94711.09
2019-05-19T17:21:24.109Z,94711.69
2019-05-19T17:23:57.630Z,94709.73
2019-05-19T17:26:30.093Z,94712.47
2019-05-19T17:29:01.184Z,94711.36
2019-05-19T17:31:43.204Z,94711.60
2019-05-19T17:34:13.885Z,94713.97
2019-05-19T17:36:53.947Z,94711.83
2019-05-19T17:39:35.100Z,94711.39
2019-05-19T17:42:09.088Z,94709.94
2019-05-19T17:44:42.689Z,94715.70
2019-05-19T17:47:14.332Z,94715.02
2019-05-19T17:49:46.547Z,94716.70
2019-05-19T17:52:17.077Z,94720.08
2019-05-19T17:54:50.358Z,94722.09
2019-05-19T17:57:25.007Z,94718.81
2019-05-19T17:59:57.643Z,94724.32
2019-05-19T18:02:32.865Z,94727.22
2019-05-19T18:05:06.872Z,94719.84
2019-05-19T18:07:40.586Z,94724.78
2019-05-19T18:10:13.292Z,94723.66
2019-05-19T18:12:50.987Z,94726.67
2019-05-19T18:15:23.301Z,94723.83
2019-05-19T18:17:58.622Z,94726.72
2019-05-19T18:20:29.362Z,94720.30
2019-05-19T18:23:03.779Z,94720.38
2019-05-19T18:25:34.333Z,94727.67
2019-05-19T18:28:05.582Z,94723.58
2019-05-19T18:30:37.937Z,94724.67
2019-05-19T18:36:19.463Z,94727.53
2019-05-19T18:38:50.678Z,94725.45
2019-05-19T18:41:25.536Z,94721.95
2019-05-19T18:43:56.042Z,94723.88
2019-05-19T18:46:40.795Z,94720.13
2019-05-19T18:49:11.238Z,94721.06
2019-05-19T18:51:44.254Z,94723.67
2019-05-19T18:54:16.290Z,94729.81
2019-05-19T18:56:46.698Z,94734.69
2019-05-19T18:59:27.177Z,94728.20
2019-05-19T19:02:00.691Z,94733.55
2019-05-19T19:04:34.315Z,94722.94
2019-05-19T19:07:07.934Z,94734.55
2019-05-19T19:09:54.903Z,94744.25
2019-05-19T19:12:32.248Z,94743.48
2019-05-19T19:15:11.023Z,94745.65
2019-05-19T19:17:46.250Z,94742.19
2019-05-19T19:20:19.814Z,94743.29
2019-05-19T19:22:53.756Z,94746.23
2019-05-19T19:25:26.976Z,94749.08
2019-05-19T19:27:59.392Z,94754.40
2019-05-19T19:30:33.891Z,94749.27
2019-05-19T19:33:04.573Z,94748.14
2019-05-19T19:35:39.102Z,94750.29
2019-05-19T19:38:13.290Z,94752.12
2019-05-19T19:40:44.204Z,94752.05
2019-05-19T19:43:35.090Z,94751.40
2019-05-19T19:46:02.378Z,94748.70
2019-05-19T19:48:39.039Z,94751.56
2019-05-19T19:51:27.589Z,94756.05
2019-05-19T19:53:58.782Z,94757.62
2019-05-19T19:56:30.827Z,94753.96
2019-05-19T19:59:09.120Z,94753.02
2019-05-19T20:01:42.614Z,94751.02
2019-05-19T20:04:16.745Z,94748.31
2019-05-19T20:06:48.064Z,94747.38
2019-05-19T20:09:21.305Z,94750.44
2019-05-19T20:12:10.881Z,94745.50
2019-05-19T20:14:46.496Z,94750.75
2019-05-19T20:17:24.601Z,94746.79
2019-05-19T20:20:16.089Z,94744.53
2019-05-19T20:22:55.263Z,94748.95
2019-05-19T20:25:25.799Z,94753.98
2019-05-19T20:27:59.503Z,94751.97
2019-05-19T20:30:35.582Z,94752.03
2019-05-19T20:33:02.960Z,94749.80
2019-05-19T20:35:34.541Z,94745.38
2019-05-19T20:40:58.985Z,94749.03
2019-05-19T20:43:31.328Z,94748.44
2019-05-19T20:46:05.442Z,94747.54
2019-05-19T20:48:38.133Z,94750.63
2019-05-19T20:51:12.091Z,94752.36
2019-05-19T20:53:49.315Z,94753.89
2019-05-19T20:56:20.404Z,94752.91
2019-05-19T20:58:52.290Z,94748.23
2019-05-19T21:01:23.145Z,94751.02
2019-05-19T21:03:55.320Z,94739.64
2019-05-19T21:06:31.206Z,94740.29
2019-05-19T21:09:02.007Z,94738.23
2019-05-19T21:11:35.076Z,94734.52
2019-05-19T21:14:10.258Z,94738.48
2019-05-19T21:16:41.685Z,94733.71
2019-05-19T21:19:14.121Z,94733.96
2019-05-19T21:21:52.876Z,94744.68
2019-05-19T21:24:28.675Z,94744.03
2019-05-19T21:27:00.373Z,94748.23
2019-05-19T21:29:32.095Z,94737.86
2019-05-19T21:32:05.004Z,94746.49
2019-05-19T21:34:38.701Z,94747.96
2019-05-19T21:37:09.393Z,94745.92
2019-05-19T21:39:42.825Z,94743.95
2019-05-19T21:42:15.810Z,94749.94
2019-05-19T21:44:48.392Z,94753.50
2019-05-19T21:47:39.031Z,94752.58
2019-05-19T21:50:11.414Z,94758.27
2019-05-19T21:52:42.310Z,94757.52
2019-05-19T21:55:13.611Z,94748.22
2019-05-19T21:57:44.485Z,94754.38
2019-05-19T22:00:25.834Z,94744.00
2019-05-19T22:03:15.218Z,94746.43
2019-05-19T22:05:53.703Z,94749.06
2019-05-19T22:08:25.622Z,94752.88
2019-05-19T22:11:04.871Z,94760.23
2019-05-19T22:13:35.754Z,94762.98
2019-05-19T22:16:25.396Z,94763.60
2019-05-19T22:18:59.536Z,94756.11
2019-05-19T22:21:30.396Z,94764.19
2019-05-19T22:24:01.135Z,94762.77
2019-05-19T22:26:32.025Z,94762.05
2019-05-19T22:29:03.087Z,94762.30
2019-05-19T22:31:36.930Z,94755.95
2019-05-19T22:34:36.716Z,94768.14
2019-05-19T22:37:07.544Z,94768.33
2019-05-19T22:39:38.272Z,94764.17
2019-05-19T22:42:10.345Z,94762.00
2019-05-19T22:44:41.228Z,94761.64
2019-05-19T22:47:14.899Z,94764.06
2019-05-19T22:49:48.247Z,94757.63
2019-05-19T22:52:19.024Z,94753.08
2019-05-19T22:54:54.569Z,94749.06
2019-05-19T22:57:25.412Z,94748.74
2019-05-19T22:59:59.324Z,94746.86
2019-05-19T23:02:34.698Z,94749.86
2019-05-19T23:05:07.271Z,94754.09
2019-05-19T23:07:44.751Z,94751.42
2019-05-19T23:10:18.172Z,94754.81
2019-05-19T23:12:53.067Z,94755.78
2019-05-19T23:15:24.386Z,94748.47
2019-05-19T23:17:56.795Z,94753.24
2019-05-19T23:20:33.078Z,94757.13
2019-05-19T23:23:06.379Z,94763.52
2019-05-19T23:25:38.861Z,94764.21
2019-05-19T23:28:11.976Z,94755.89
2019-05-19T23:30:45.084Z,94759.33
2019-05-19T23:33:17.041Z,94767.06
2019-05-19T23:35:50.292Z,94765.15
2019-05-19T23:38:21.024Z,94763.05
2019-05-19T23:40:52.347Z,94767.50
2019-05-19T23:43:26.042Z,94763.16
2019-05-19T23:45:56.424Z,94753.42
2019-05-19T23:48:27.297Z,94748.58
2019-05-19T23:50:57.809Z,94747.73
2019-05-19T23:53:29.162Z,94753.27
2019-05-19T23:55:59.596Z,94749.76
2019-05-19T23:58:31.611Z,94754.82
